Altro, Kentucky
Current Conditions -  °F | °C
As of 1:53 AM on Thursday 27 Nov 2014 (Local Time) from KJKL Reporting Station
Overcast Overcast  
Wind Chill: 36°   Ceiling: 8500
Heat Index: 36°   Visibility: 10mi
Dew Point: 27°   Wind: 3mph
Humidity: 70%   Direction: 40°NE
Pressure: 29.98"   Gusts: NA
Location:  37.532°N, 83.3068°W
Report Text: KJKL 270653Z AUTO 04003KT 10SM OVC085 02/M03 A2998 RMK AO2 SLP157 T00221028
Loading
Personal Weather Stations






























Interactive Weather Map New forecast layout! Learn more

10-Day Weather Forecast

Advertisements
Track Severe Weather on mobile